createdAt,value
2019-01-11T00:01:35.449Z,8.83
2019-01-11T00:04:03.441Z,9.17
2019-01-11T00:06:31.072Z,9.73
2019-01-11T00:08:58.437Z,8.53
2019-01-11T00:11:26.445Z,9.43
2019-01-11T00:13:54.157Z,8.43
2019-01-11T00:16:22.536Z,7.67
2019-01-11T00:18:50.606Z,9.07
2019-01-11T00:21:18.782Z,7.83
2019-01-11T00:23:46.468Z,10.47
2019-01-11T00:26:14.530Z,8.00
2019-01-11T00:28:41.920Z,6.57
2019-01-11T00:31:09.916Z,7.70
2019-01-11T00:33:37.423Z,7.47
2019-01-11T00:36:05.252Z,7.43
2019-01-11T00:38:32.924Z,11.43
2019-01-11T00:41:00.367Z,7.70
2019-01-11T00:43:27.778Z,8.53
2019-01-11T00:45:55.196Z,7.37
2019-01-11T00:48:22.640Z,7.80
2019-01-11T00:50:50.601Z,8.60
2019-01-11T00:53:18.883Z,9.70
2019-01-11T00:55:46.614Z,10.77
2019-01-11T00:58:14.729Z,8.70
2019-01-11T01:00:42.583Z,8.63
2019-01-11T01:03:10.143Z,8.97
2019-01-11T01:05:37.645Z,8.27
2019-01-11T01:08:05.239Z,10.57
2019-01-11T01:10:32.612Z,8.07
2019-01-11T01:13:00.275Z,7.37
2019-01-11T01:15:27.904Z,9.50
2019-01-11T01:17:55.579Z,9.60
2019-01-11T01:20:22.855Z,10.60
2019-01-11T01:22:50.326Z,8.93
2019-01-11T01:25:18.102Z,9.43
2019-01-11T01:27:45.466Z,10.93
2019-01-11T01:30:15.445Z,9.40
2019-01-11T01:32:42.906Z,8.50
2019-01-11T01:35:11.787Z,8.83
2019-01-11T01:37:39.661Z,10.57
2019-01-11T01:40:09.872Z,10.73
2019-01-11T01:42:37.352Z,9.43
2019-01-11T01:45:09.034Z,9.57
2019-01-11T01:47:36.855Z,9.00
2019-01-11T01:50:06.448Z,9.80
2019-01-11T01:52:34.728Z,10.10
2019-01-11T01:55:02.390Z,7.80
2019-01-11T01:57:30.153Z,9.40
2019-01-11T01:59:58.012Z,10.00
2019-01-11T02:02:25.986Z,9.00
2019-01-11T02:04:53.273Z,8.50
2019-01-11T02:07:21.052Z,8.53
2019-01-11T02:09:48.363Z,9.43
2019-01-11T02:12:15.912Z,11.03
2019-01-11T02:14:43.681Z,10.70
2019-01-11T02:17:11.768Z,11.20
2019-01-11T02:19:39.299Z,10.20
2019-01-11T02:22:07.034Z,9.30
2019-01-11T02:24:35.237Z,8.07
2019-01-11T02:27:03.456Z,9.77
2019-01-11T02:29:31.590Z,11.33
2019-01-11T02:31:59.358Z,11.13
2019-01-11T02:34:28.038Z,11.40
2019-01-11T02:36:55.850Z,12.33
2019-01-11T02:39:23.504Z,10.40
2019-01-11T02:41:52.768Z,10.67
2019-01-11T02:44:21.032Z,11.00
2019-01-11T02:46:48.709Z,11.50
2019-01-11T02:49:16.079Z,12.00
2019-01-11T02:51:44.401Z,14.00
2019-01-11T02:54:13.006Z,10.77
2019-01-11T02:56:40.854Z,12.20
2019-01-11T02:59:08.673Z,12.90
2019-01-11T03:01:36.390Z,11.43
2019-01-11T03:04:03.859Z,12.77
2019-01-11T03:06:31.768Z,11.03
2019-01-11T03:08:59.024Z,11.60
2019-01-11T03:11:27.046Z,13.37
2019-01-11T03:13:55.532Z,10.53
2019-01-11T03:16:25.851Z,11.90
2019-01-11T03:18:53.340Z,13.30
2019-01-11T03:21:21.604Z,12.07
2019-01-11T03:23:49.759Z,12.47
2019-01-11T03:26:18.034Z,14.27
2019-01-11T03:28:46.314Z,12.07
2019-01-11T03:31:32.757Z,13.13
2019-01-11T03:34:01.063Z,12.37
2019-01-11T03:36:28.529Z,12.23
2019-01-11T03:38:56.625Z,12.53
2019-01-11T03:41:25.611Z,14.80
2019-01-11T03:43:53.614Z,10.20
2019-01-11T03:46:21.599Z,10.23
2019-01-11T03:48:50.073Z,11.47
2019-01-11T03:51:18.501Z,10.10
2019-01-11T03:53:46.980Z,13.03
2019-01-11T03:56:14.646Z,10.77
2019-01-11T03:58:42.147Z,11.23
2019-01-11T04:01:10.886Z,13.03
2019-01-11T04:03:38.430Z,9.37
2019-01-11T04:06:06.544Z,12.23
2019-01-11T04:08:34.480Z,13.13
2019-01-11T04:11:02.279Z,10.80
2019-01-11T04:13:30.702Z,12.97
2019-01-11T04:15:58.404Z,10.83
2019-01-11T04:18:30.691Z,10.93
2019-01-11T04:20:58.447Z,12.97
2019-01-11T04:23:26.252Z,11.50
2019-01-11T04:25:54.057Z,12.03
2019-01-11T04:28:21.957Z,8.53
2019-01-11T04:30:50.194Z,9.97
2019-01-11T04:33:17.852Z,10.70
2019-01-11T04:35:45.929Z,9.63
2019-01-11T04:38:14.093Z,10.70
2019-01-11T04:40:42.678Z,12.53
2019-01-11T04:43:09.955Z,9.70
2019-01-11T04:45:38.077Z,10.53
2019-01-11T04:48:06.223Z,9.90
2019-01-11T04:50:34.756Z,11.50
2019-01-11T04:53:03.133Z,10.50
2019-01-11T04:55:32.085Z,10.50
2019-01-11T04:58:00.503Z,10.00
2019-01-11T05:00:28.402Z,10.63
2019-01-11T05:02:56.032Z,9.73
2019-01-11T05:05:24.104Z,9.80
2019-01-11T05:07:52.576Z,8.80
2019-01-11T05:10:20.644Z,10.67
2019-01-11T05:12:48.985Z,8.40
2019-01-11T05:15:17.148Z,10.07
2019-01-11T05:17:44.860Z,10.20
2019-01-11T05:20:16.700Z,10.73
2019-01-11T05:22:45.566Z,8.67
2019-01-11T05:25:13.415Z,8.97
2019-01-11T05:27:41.611Z,9.23
2019-01-11T05:30:15.980Z,11.07
2019-01-11T05:32:43.732Z,9.87
2019-01-11T05:35:12.312Z,11.33
2019-01-11T05:37:39.679Z,12.30
2019-01-11T05:40:15.706Z,9.57
2019-01-11T05:42:43.203Z,10.13
2019-01-11T05:45:10.625Z,8.83
2019-01-11T05:47:38.299Z,9.97
2019-01-11T05:50:09.140Z,9.03
2019-01-11T05:52:37.624Z,7.40
2019-01-11T05:55:06.261Z,9.27
2019-01-11T05:57:33.702Z,8.70
2019-01-11T06:00:01.571Z,9.00
2019-01-11T06:02:29.486Z,8.60
2019-01-11T06:05:02.164Z,9.03
2019-01-11T06:07:49.213Z,9.20
2019-01-11T06:10:16.787Z,9.80
2019-01-11T06:12:44.064Z,10.63
2019-01-11T06:15:11.527Z,8.70
2019-01-11T06:17:38.882Z,8.33
2019-01-11T06:20:12.139Z,9.23
2019-01-11T06:22:39.693Z,7.83
2019-01-11T06:25:08.101Z,9.67
2019-01-11T06:27:37.865Z,8.97
2019-01-11T06:30:08.528Z,9.87
2019-01-11T06:32:36.737Z,9.53
2019-01-11T06:35:04.737Z,10.50
2019-01-11T06:37:32.470Z,8.80
2019-01-11T06:39:59.931Z,9.90
2019-01-11T06:42:27.349Z,10.63
2019-01-11T06:44:55.034Z,8.10
2019-01-11T06:47:23.104Z,9.67
2019-01-11T06:49:50.966Z,8.50
2019-01-11T06:52:18.819Z,8.77
2019-01-11T06:54:46.907Z,8.00
2019-01-11T06:57:15.807Z,9.60
2019-01-11T06:59:43.863Z,9.20
2019-01-11T07:02:11.894Z,10.90
2019-01-11T07:04:39.137Z,9.67
2019-01-11T07:07:07.376Z,10.47
2019-01-11T07:09:35.407Z,11.30
2019-01-11T07:12:03.297Z,8.77
2019-01-11T07:14:31.484Z,9.57
2019-01-11T07:17:00.077Z,10.47
2019-01-11T07:19:27.965Z,8.13
2019-01-11T07:21:55.991Z,8.73
2019-01-11T07:24:24.122Z,11.13
2019-01-11T07:26:52.177Z,13.27
2019-01-11T07:29:20.158Z,8.73
2019-01-11T07:31:47.807Z,10.13
2019-01-11T07:34:15.068Z,11.77
2019-01-11T07:36:45.731Z,7.83
2019-01-11T07:39:30.302Z,9.60
2019-01-11T07:41:57.717Z,12.63
2019-01-11T07:44:25.966Z,11.43
2019-01-11T07:46:53.906Z,9.90
2019-01-11T07:49:23.305Z,9.47
2019-01-11T07:51:51.382Z,7.43
2019-01-11T07:54:18.745Z,8.93
2019-01-11T07:56:46.585Z,8.30
2019-01-11T07:59:15.538Z,8.90
2019-01-11T08:01:43.661Z,9.77
2019-01-11T08:04:11.461Z,10.80
2019-01-11T08:06:39.298Z,10.23
2019-01-11T08:09:08.276Z,9.50
2019-01-11T08:11:35.668Z,9.17
2019-01-11T08:14:04.518Z,10.07
2019-01-11T08:16:31.872Z,8.50
2019-01-11T08:19:00.415Z,9.27
2019-01-11T08:21:29.038Z,9.07
2019-01-11T08:23:56.544Z,9.27
2019-01-11T08:26:24.701Z,12.43
2019-01-11T08:28:52.297Z,10.13
2019-01-11T08:31:19.656Z,9.17
2019-01-11T08:33:46.919Z,9.70
2019-01-11T08:36:14.286Z,11.23
2019-01-11T08:38:42.169Z,11.20
2019-01-11T08:41:09.870Z,10.13
2019-01-11T08:43:37.469Z,9.80
2019-01-11T08:46:04.730Z,9.40
2019-01-11T08:48:33.528Z,9.93
2019-01-11T08:51:02.856Z,11.10
2019-01-11T08:53:31.406Z,12.13
2019-01-11T08:55:59.152Z,9.33
2019-01-11T08:58:27.064Z,10.40
2019-01-11T09:00:54.991Z,8.87
2019-01-11T09:03:22.432Z,9.57
2019-01-11T09:05:49.804Z,10.40
2019-01-11T09:08:17.889Z,10.33
2019-01-11T09:10:46.327Z,11.00
2019-01-11T09:13:13.585Z,11.17
2019-01-11T09:15:41.213Z,10.03
2019-01-11T09:18:16.085Z,11.90
2019-01-11T09:20:43.961Z,9.40
2019-01-11T09:23:11.414Z,9.57
2019-01-11T09:25:38.962Z,9.80
2019-01-11T09:28:06.639Z,10.70
2019-01-11T09:30:34.355Z,9.13
2019-01-11T09:33:02.182Z,9.97
2019-01-11T09:35:30.745Z,12.20
2019-01-11T09:37:57.985Z,8.47
2019-01-11T09:40:25.426Z,11.70
2019-01-11T09:42:55.930Z,10.97
2019-01-11T09:45:24.272Z,15.97
2019-01-11T09:47:51.650Z,15.50
2019-01-11T09:50:19.997Z,9.20
2019-01-11T09:53:17.049Z,8.20
2019-01-11T09:55:45.524Z,11.77
2019-01-11T09:58:12.796Z,11.30
2019-01-11T10:00:40.443Z,11.33
2019-01-11T10:03:09.649Z,8.97
2019-01-11T10:05:37.115Z,6.63
2019-01-11T10:08:04.673Z,8.30
2019-01-11T10:10:31.931Z,7.10
2019-01-11T10:12:59.335Z,6.23
2019-01-11T10:15:26.805Z,7.93
2019-01-11T10:17:54.571Z,6.60
2019-01-11T10:20:22.099Z,7.97
2019-01-11T10:22:50.713Z,9.60
2019-01-11T10:25:20.831Z,7.17
2019-01-11T10:27:48.665Z,6.57
2019-01-11T10:30:17.963Z,7.10
2019-01-11T10:32:45.515Z,8.97
2019-01-11T10:35:14.242Z,7.90
2019-01-11T10:37:42.210Z,8.13
2019-01-11T10:40:12.202Z,7.70
2019-01-11T10:42:40.363Z,7.73
2019-01-11T10:45:12.671Z,9.30
2019-01-11T10:47:41.107Z,7.90
2019-01-11T10:50:10.728Z,7.37
2019-01-11T10:52:39.100Z,7.73
2019-01-11T10:55:10.023Z,6.67
2019-01-11T10:57:37.839Z,9.47
2019-01-11T11:00:20.950Z,7.93
2019-01-11T11:02:50.155Z,8.07
2019-01-11T11:05:18.179Z,7.80
2019-01-11T11:07:45.988Z,9.63
2019-01-11T11:10:14.046Z,7.30
2019-01-11T11:12:41.492Z,6.87
2019-01-11T11:15:12.738Z,9.00
2019-01-11T11:17:41.661Z,6.93
2019-01-11T11:20:12.051Z,6.30
2019-01-11T11:22:40.557Z,7.80
2019-01-11T11:25:10.530Z,6.63
2019-01-11T11:27:37.909Z,6.87
2019-01-11T11:30:07.750Z,6.70
2019-01-11T11:32:57.633Z,8.93
2019-01-11T11:35:27.090Z,7.70
2019-01-11T11:37:54.774Z,8.70
2019-01-11T11:40:23.061Z,7.50
2019-01-11T11:42:50.361Z,7.43
2019-01-11T11:45:18.316Z,7.07
2019-01-11T11:47:45.879Z,5.93
2019-01-11T11:50:13.799Z,6.70
2019-01-11T11:52:41.333Z,7.00
2019-01-11T11:55:09.505Z,7.23
2019-01-11T11:57:37.264Z,7.57
2019-01-11T12:00:09.174Z,9.80
2019-01-11T12:02:37.808Z,7.73
2019-01-11T12:05:05.693Z,9.97
2019-01-11T12:07:34.187Z,8.23
2019-01-11T12:10:01.869Z,7.00
2019-01-11T12:12:29.503Z,11.00
2019-01-11T12:14:57.682Z,8.47
2019-01-11T12:17:24.975Z,10.73
2019-01-11T12:19:57.026Z,7.30
2019-01-11T12:22:22.317Z,9.37
2019-01-11T12:24:49.657Z,10.50
2019-01-11T12:27:17.317Z,8.93
2019-01-11T12:29:44.579Z,10.47
2019-01-11T12:32:12.128Z,9.57
2019-01-11T12:34:40.202Z,12.83
2019-01-11T12:37:08.284Z,9.97
2019-01-11T12:39:35.934Z,9.90
2019-01-11T12:42:03.589Z,8.90
2019-01-11T12:44:31.658Z,9.03
2019-01-11T12:46:58.996Z,9.40
2019-01-11T12:49:26.275Z,9.43
2019-01-11T12:51:54.137Z,9.53
2019-01-11T12:54:21.920Z,10.57
2019-01-11T12:56:49.252Z,9.63
2019-01-11T12:59:16.590Z,10.73
2019-01-11T13:01:44.304Z,9.23
2019-01-11T13:04:11.946Z,10.67
2019-01-11T13:06:39.242Z,10.00
2019-01-11T13:09:07.975Z,8.53
2019-01-11T13:11:35.765Z,12.20
2019-01-11T13:14:03.596Z,16.27
2019-01-11T13:16:31.718Z,9.97
2019-01-11T13:19:00.247Z,10.57
2019-01-11T13:21:27.790Z,11.33
2019-01-11T13:23:55.318Z,12.93
2019-01-11T13:26:22.800Z,11.77
2019-01-11T13:28:50.486Z,9.40
2019-01-11T13:31:18.405Z,10.67
2019-01-11T13:33:46.214Z,11.57
2019-01-11T13:36:18.280Z,10.00
2019-01-11T13:38:45.963Z,11.67
2019-01-11T13:41:13.712Z,11.43
2019-01-11T13:43:41.771Z,9.77
2019-01-11T13:46:09.644Z,10.83
2019-01-11T13:48:36.912Z,11.87
2019-01-11T13:51:04.732Z,13.40
2019-01-11T13:53:32.700Z,12.97
2019-01-11T13:56:00.325Z,12.00
2019-01-11T13:58:27.628Z,9.37
2019-01-11T14:00:55.296Z,9.03
2019-01-11T14:03:22.694Z,11.00
2019-01-11T14:05:50.249Z,9.80
2019-01-11T14:08:17.694Z,9.40
2019-01-11T14:10:50.069Z,10.97
2019-01-11T14:13:18.360Z,12.27
2019-01-11T14:15:46.078Z,10.57
2019-01-11T14:18:13.368Z,10.23
2019-01-11T14:20:40.803Z,11.27
2019-01-11T14:23:08.207Z,10.70
2019-01-11T14:25:36.208Z,12.40
2019-01-11T14:28:04.483Z,11.20
2019-01-11T14:30:32.556Z,9.63
2019-01-11T14:33:00.378Z,8.97
2019-01-11T14:35:27.973Z,10.80
2019-01-11T14:37:56.560Z,11.67
2019-01-11T14:40:25.699Z,11.70
2019-01-11T14:42:54.033Z,13.13
2019-01-11T14:45:22.819Z,10.00
2019-01-11T14:47:50.763Z,10.27
2019-01-11T14:50:18.858Z,12.50
2019-01-11T14:52:46.728Z,11.57
2019-01-11T14:55:14.295Z,12.07
2019-01-11T14:57:42.282Z,10.63
2019-01-11T15:00:18.008Z,8.93
2019-01-11T15:02:46.507Z,9.60
2019-01-11T15:05:15.060Z,9.47
2019-01-11T15:07:43.135Z,13.53
2019-01-11T15:10:12.518Z,15.53
2019-01-11T15:12:41.305Z,8.80
2019-01-11T15:15:08.844Z,12.53
2019-01-11T15:17:36.271Z,11.63
2019-01-11T15:20:07.685Z,9.93
2019-01-11T15:22:35.175Z,9.53
2019-01-11T15:25:04.532Z,10.47
2019-01-11T15:27:32.718Z,12.27
2019-01-11T15:30:00.588Z,10.43
2019-01-11T15:32:28.353Z,12.10
2019-01-11T15:34:57.341Z,12.80
2019-01-11T15:37:25.210Z,13.10
2019-01-11T15:39:52.780Z,14.37
2019-01-11T15:42:22.826Z,12.37
2019-01-11T15:44:51.105Z,13.63
2019-01-11T15:47:20.525Z,11.90
2019-01-11T15:49:48.212Z,10.70
2019-01-11T15:52:15.693Z,10.43
2019-01-11T15:54:43.112Z,10.73
2019-01-11T15:57:10.650Z,9.77
2019-01-11T16:00:00.881Z,12.33
2019-01-11T16:02:28.494Z,11.80
2019-01-11T16:04:58.713Z,11.13
2019-01-11T16:07:26.934Z,11.47
2019-01-11T16:10:04.343Z,11.33
2019-01-11T16:12:57.391Z,12.40
2019-01-11T16:15:52.074Z,14.07
2019-01-11T16:18:24.226Z,9.80
2019-01-11T16:20:52.414Z,13.50
2019-01-11T16:23:19.741Z,10.97
2019-01-11T16:25:47.208Z,10.27
2019-01-11T16:28:16.028Z,13.27
2019-01-11T16:30:45.261Z,11.77
2019-01-11T16:33:12.522Z,10.63
2019-01-11T16:35:40.633Z,12.57
2019-01-11T16:38:15.874Z,12.10
2019-01-11T16:40:44.660Z,13.17
2019-01-11T16:43:12.457Z,13.27
2019-01-11T16:45:40.139Z,11.70
2019-01-11T16:48:08.764Z,12.47
2019-01-11T16:50:36.614Z,11.13
2019-01-11T16:53:04.063Z,11.80
2019-01-11T16:55:32.088Z,12.10
2019-01-11T16:58:00.549Z,13.43
2019-01-11T17:00:28.612Z,10.83
2019-01-11T17:02:56.697Z,9.67
2019-01-11T17:05:24.920Z,10.60
2019-01-11T17:07:52.430Z,12.93
2019-01-11T17:10:20.687Z,11.53
2019-01-11T17:12:48.553Z,12.40
2019-01-11T17:15:17.184Z,11.57
2019-01-11T17:17:45.350Z,10.23
2019-01-11T17:20:15.560Z,17.53
2019-01-11T17:22:44.447Z,24.37
2019-01-11T17:25:13.502Z,15.20
2019-01-11T17:27:41.585Z,11.77
2019-01-11T17:30:14.350Z,16.50
2019-01-11T17:32:42.143Z,16.83
2019-01-11T17:35:10.415Z,18.77
2019-01-11T17:37:38.323Z,14.70
2019-01-11T17:40:08.805Z,38.33
2019-01-11T17:42:37.367Z,19.73
2019-01-11T17:45:07.843Z,13.63
2019-01-11T17:47:35.839Z,12.63
2019-01-11T17:50:06.924Z,10.93
2019-01-11T17:52:34.662Z,12.13
2019-01-11T17:55:02.529Z,15.97
2019-01-11T17:57:29.927Z,24.80
2019-01-11T17:59:57.884Z,14.47
2019-01-11T18:02:25.291Z,13.43
2019-01-11T18:04:53.945Z,84.03
2019-01-11T18:07:22.920Z,25.30
2019-01-11T18:09:50.576Z,16.03
2019-01-11T18:12:20.117Z,18.17
2019-01-11T18:14:47.931Z,18.40
2019-01-11T18:17:16.073Z,18.10
2019-01-11T18:19:43.602Z,14.00
2019-01-11T18:22:11.503Z,13.80
2019-01-11T18:24:39.187Z,16.33
2019-01-11T18:27:06.568Z,12.67
2019-01-11T18:29:33.982Z,12.70
2019-01-11T18:32:01.604Z,23.03
2019-01-11T18:34:41.105Z,21.63
2019-01-11T18:37:10.078Z,59.20
2019-01-11T18:39:37.457Z,53.70
2019-01-11T18:42:04.921Z,25.40
2019-01-11T18:44:32.962Z,27.57
2019-01-11T18:47:08.962Z,15.53
2019-01-11T18:49:37.117Z,14.10
2019-01-11T18:52:04.678Z,15.67
2019-01-11T18:54:32.827Z,11.17
2019-01-11T18:57:00.370Z,12.20
2019-01-11T18:59:28.012Z,11.37
2019-01-11T19:01:55.642Z,12.67
2019-01-11T19:04:23.368Z,13.60
2019-01-11T19:06:50.743Z,14.17
2019-01-11T19:09:18.102Z,13.90
2019-01-11T19:11:45.512Z,11.20
2019-01-11T19:14:13.344Z,11.77
2019-01-11T19:16:41.226Z,11.53
2019-01-11T19:19:08.494Z,12.07
2019-01-11T19:21:36.036Z,11.03
2019-01-11T19:24:03.974Z,10.57
2019-01-11T19:26:32.966Z,11.53
2019-01-11T19:29:00.901Z,10.10
2019-01-11T19:31:28.605Z,10.13
2019-01-11T19:33:56.223Z,12.37
2019-01-11T19:36:24.108Z,12.37
2019-01-11T19:38:51.708Z,12.77
2019-01-11T19:41:20.146Z,12.60
2019-01-11T19:43:47.788Z,22.03
2019-01-11T19:46:15.481Z,16.17
2019-01-11T19:48:43.438Z,16.17
2019-01-11T19:51:10.925Z,13.37
2019-01-11T19:53:38.462Z,14.20
2019-01-11T19:56:06.726Z,14.30
2019-01-11T19:58:34.207Z,15.77
2019-01-11T20:01:02.115Z,17.53
2019-01-11T20:03:30.091Z,16.27
2019-01-11T20:05:58.108Z,18.23
2019-01-11T20:08:25.975Z,15.97
2019-01-11T20:10:53.700Z,13.37
2019-01-11T20:13:21.787Z,14.77
2019-01-11T20:15:57.170Z,18.23
2019-01-11T20:18:25.199Z,14.03
2019-01-11T20:20:53.468Z,16.23
2019-01-11T20:23:21.107Z,14.43
2019-01-11T20:25:48.665Z,14.30
2019-01-11T20:28:17.225Z,14.07
2019-01-11T20:30:45.760Z,13.60
2019-01-11T20:33:13.133Z,14.40
2019-01-11T20:35:41.161Z,11.83
2019-01-11T20:38:08.829Z,14.63
2019-01-11T20:40:36.488Z,14.13
2019-01-11T20:43:04.023Z,12.80
2019-01-11T20:45:31.813Z,17.57
2019-01-11T20:47:59.235Z,16.77
2019-01-11T20:50:26.922Z,16.87
2019-01-11T20:52:55.558Z,14.63
2019-01-11T20:55:23.688Z,17.37
2019-01-11T20:57:51.964Z,20.50
2019-01-11T21:00:23.822Z,17.30
2019-01-11T21:02:51.661Z,21.50
2019-01-11T21:05:19.661Z,16.93
2019-01-11T21:07:47.934Z,15.27
2019-01-11T21:10:17.029Z,15.63
2019-01-11T21:12:45.204Z,17.80
2019-01-11T21:15:14.311Z,16.50
2019-01-11T21:17:42.261Z,15.93
2019-01-11T21:20:12.684Z,19.60
2019-01-11T21:22:40.763Z,18.23
2019-01-11T21:25:10.940Z,15.37
2019-01-11T21:27:39.362Z,15.53
2019-01-11T21:30:15.001Z,18.77
2019-01-11T21:32:43.184Z,16.83
2019-01-11T21:35:11.830Z,17.10
2019-01-11T21:37:48.541Z,17.97
2019-01-11T21:40:20.933Z,19.37
2019-01-11T21:42:51.259Z,26.43
2019-01-11T21:45:27.397Z,18.90
2019-01-11T21:47:55.366Z,17.47
2019-01-11T21:50:25.666Z,17.30
2019-01-11T21:52:55.670Z,18.67
2019-01-11T21:55:23.246Z,18.23
2019-01-11T21:57:59.479Z,19.63
2019-01-11T22:00:40.166Z,33.70
2019-01-11T22:03:12.564Z,19.80
2019-01-11T22:05:41.235Z,19.10
2019-01-11T22:08:09.273Z,22.70
2019-01-11T22:10:37.192Z,21.70
2019-01-11T22:13:05.348Z,19.70
2019-01-11T22:15:32.677Z,19.90
2019-01-11T22:18:00.345Z,22.00
2019-01-11T22:20:27.749Z,19.73
2019-01-11T22:22:55.481Z,18.87
2019-01-11T22:25:22.822Z,20.23
2019-01-11T22:27:50.735Z,18.67
2019-01-11T22:30:20.328Z,36.70
2019-01-11T22:32:48.366Z,31.07
2019-01-11T22:35:16.062Z,38.40
2019-01-11T22:37:43.706Z,26.33
2019-01-11T22:40:17.418Z,19.57
2019-01-11T22:42:46.605Z,20.20
2019-01-11T22:45:14.074Z,17.60
2019-01-11T22:47:42.542Z,19.27
2019-01-11T22:50:11.840Z,20.37
2019-01-11T22:52:39.445Z,19.77
2019-01-11T22:55:09.516Z,20.93
2019-01-11T22:57:36.876Z,22.83
2019-01-11T23:00:50.248Z,20.57
2019-01-11T23:03:30.257Z,18.83
2019-01-11T23:06:28.341Z,21.43
2019-01-11T23:08:57.556Z,19.93
2019-01-11T23:12:39.519Z,22.20
2019-01-11T23:15:13.815Z,18.60
2019-01-11T23:18:05.322Z,19.30
2019-01-11T23:20:33.022Z,19.63
2019-01-11T23:23:00.952Z,19.60
2019-01-11T23:25:29.176Z,22.47
2019-01-11T23:27:57.398Z,19.43
2019-01-11T23:30:25.099Z,20.07
2019-01-11T23:32:53.583Z,20.93
2019-01-11T23:35:21.648Z,23.63
2019-01-11T23:37:49.317Z,19.07
2019-01-11T23:40:17.317Z,22.30
2019-01-11T23:42:45.285Z,21.80
2019-01-11T23:45:12.733Z,19.33
2019-01-11T23:47:40.257Z,18.17
2019-01-11T23:50:12.159Z,17.93
2019-01-11T23:52:39.981Z,21.83
2019-01-11T23:55:08.021Z,18.40
2019-01-11T23:57:35.558Z,15.90
